sensor_id;sensor_type;location;lat;lon;timestamp;P1;durP1;ratioP1;P2;durP2;ratioP2
71253;SDS011;59019;47.638;18.966;2023-02-15T00:01:36;32.40;;;12.13;;
71253;SDS011;59019;47.638;18.966;2023-02-15T00:04:02;30.10;;;10.50;;
71253;SDS011;59019;47.638;18.966;2023-02-15T00:06:28;26.30;;;10.30;;
71253;SDS011;59019;47.638;18.966;2023-02-15T00:08:54;29.48;;;10.88;;
71253;SDS011;59019;47.638;18.966;2023-02-15T00:11:21;31.88;;;11.82;;
71253;SDS011;59019;47.638;18.966;2023-02-15T00:16:32;35.95;;;15.18;;
71253;SDS011;59019;47.638;18.966;2023-02-15T00:18:57;40.10;;;15.27;;
71253;SDS011;59019;47.638;18.966;2023-02-15T00:21:26;37.10;;;14.68;;
71253;SDS011;59019;47.638;18.966;2023-02-15T00:23:55;37.33;;;14.63;;
71253;SDS011;59019;47.638;18.966;2023-02-15T00:26:21;39.95;;;15.60;;
71253;SDS011;59019;47.638;18.966;2023-02-15T00:28:46;32.83;;;13.95;;
71253;SDS011;59019;47.638;18.966;2023-02-15T00:31:12;30.88;;;12.93;;
71253;SDS011;59019;47.638;18.966;2023-02-15T00:33:38;31.33;;;12.97;;
71253;SDS011;59019;47.638;18.966;2023-02-15T00:36:05;29.35;;;11.40;;
71253;SDS011;59019;47.638;18.966;2023-02-15T00:38:32;25.60;;;11.27;;
71253;SDS011;59019;47.638;18.966;2023-02-15T00:40:59;25.08;;;9.68;;
71253;SDS011;59019;47.638;18.966;2023-02-15T00:43:26;29.45;;;11.02;;
71253;SDS011;59019;47.638;18.966;2023-02-15T00:45:54;42.17;;;16.25;;
71253;SDS011;59019;47.638;18.966;2023-02-15T00:48:20;50.70;;;18.60;;
71253;SDS011;59019;47.638;18.966;2023-02-15T00:50:46;46.20;;;18.85;;
71253;SDS011;59019;47.638;18.966;2023-02-15T00:53:14;45.95;;;17.00;;
71253;SDS011;59019;47.638;18.966;2023-02-15T00:55:40;39.83;;;15.83;;
71253;SDS011;59019;47.638;18.966;2023-02-15T00:58:06;37.28;;;15.15;;
71253;SDS011;59019;47.638;18.966;2023-02-15T01:00:32;31.88;;;12.95;;
71253;SDS011;59019;47.638;18.966;2023-02-15T01:02:58;34.93;;;13.77;;
71253;SDS011;59019;47.638;18.966;2023-02-15T01:05:23;38.77;;;14.53;;
71253;SDS011;59019;47.638;18.966;2023-02-15T01:07:49;31.55;;;12.57;;
71253;SDS011;59019;47.638;18.966;2023-02-15T01:10:14;34.08;;;12.68;;
71253;SDS011;59019;47.638;18.966;2023-02-15T01:12:40;27.73;;;11.63;;
71253;SDS011;59019;47.638;18.966;2023-02-15T01:15:05;33.20;;;11.40;;
71253;SDS011;59019;47.638;18.966;2023-02-15T01:17:31;25.60;;;9.70;;
71253;SDS011;59019;47.638;18.966;2023-02-15T01:19:57;26.52;;;8.90;;
71253;SDS011;59019;47.638;18.966;2023-02-15T01:22:24;27.55;;;11.00;;
71253;SDS011;59019;47.638;18.966;2023-02-15T01:24:49;26.03;;;10.30;;
71253;SDS011;59019;47.638;18.966;2023-02-15T01:27:15;33.47;;;11.87;;
71253;SDS011;59019;47.638;18.966;2023-02-15T01:29:41;27.60;;;10.23;;
71253;SDS011;59019;47.638;18.966;2023-02-15T01:32:06;26.97;;;9.83;;
71253;SDS011;59019;47.638;18.966;2023-02-15T01:34:32;24.85;;;9.48;;
71253;SDS011;59019;47.638;18.966;2023-02-15T01:36:58;22.87;;;8.27;;
71253;SDS011;59019;47.638;18.966;2023-02-15T01:39:23;24.20;;;8.73;;
71253;SDS011;59019;47.638;18.966;2023-02-15T01:41:49;26.15;;;9.48;;
71253;SDS011;59019;47.638;18.966;2023-02-15T01:47:10;25.43;;;8.33;;
71253;SDS011;59019;47.638;18.966;2023-02-15T01:49:39;22.63;;;8.85;;
71253;SDS011;59019;47.638;18.966;2023-02-15T01:52:08;22.75;;;8.68;;
71253;SDS011;59019;47.638;18.966;2023-02-15T01:54:37;32.50;;;12.88;;
71253;SDS011;59019;47.638;18.966;2023-02-15T01:57:09;31.10;;;14.25;;
71253;SDS011;59019;47.638;18.966;2023-02-15T01:59:38;36.67;;;16.03;;
71253;SDS011;59019;47.638;18.966;2023-02-15T02:02:06;38.05;;;14.85;;
71253;SDS011;59019;47.638;18.966;2023-02-15T02:07:19;36.80;;;16.67;;
71253;SDS011;59019;47.638;18.966;2023-02-15T02:09:47;29.50;;;14.93;;
71253;SDS011;59019;47.638;18.966;2023-02-15T02:12:14;31.17;;;14.27;;
71253;SDS011;59019;47.638;18.966;2023-02-15T02:14:42;32.80;;;12.77;;
71253;SDS011;59019;47.638;18.966;2023-02-15T02:20:15;94.50;;;28.23;;
71253;SDS011;59019;47.638;18.966;2023-02-15T02:42:36;23.33;;;8.77;;
71253;SDS011;59019;47.638;18.966;2023-02-15T02:45:14;23.80;;;8.82;;
71253;SDS011;59019;47.638;18.966;2023-02-15T02:47:48;22.52;;;8.45;;
71253;SDS011;59019;47.638;18.966;2023-02-15T02:50:21;21.50;;;8.93;;
71253;SDS011;59019;47.638;18.966;2023-02-15T02:52:51;24.73;;;9.07;;
71253;SDS011;59019;47.638;18.966;2023-02-15T02:58:04;22.92;;;10.23;;
71253;SDS011;59019;47.638;18.966;2023-02-15T03:00:35;24.25;;;11.45;;
71253;SDS011;59019;47.638;18.966;2023-02-15T03:03:12;22.00;;;9.48;;
71253;SDS011;59019;47.638;18.966;2023-02-15T03:06:01;25.08;;;10.55;;
71253;SDS011;59019;47.638;18.966;2023-02-15T03:08:33;25.08;;;9.75;;
71253;SDS011;59019;47.638;18.966;2023-02-15T03:11:03;24.17;;;9.97;;
71253;SDS011;59019;47.638;18.966;2023-02-15T03:13:29;22.63;;;10.27;;
71253;SDS011;59019;47.638;18.966;2023-02-15T03:15:56;22.58;;;9.07;;
71253;SDS011;59019;47.638;18.966;2023-02-15T03:18:46;16.92;;;7.60;;
71253;SDS011;59019;47.638;18.966;2023-02-15T03:21:19;20.27;;;7.78;;
71253;SDS011;59019;47.638;18.966;2023-02-15T03:23:59;16.40;;;6.73;;
71253;SDS011;59019;47.638;18.966;2023-02-15T03:26:30;17.15;;;5.88;;
71253;SDS011;59019;47.638;18.966;2023-02-15T03:28:57;16.67;;;6.10;;
71253;SDS011;59019;47.638;18.966;2023-02-15T03:31:28;18.02;;;8.07;;
71253;SDS011;59019;47.638;18.966;2023-02-15T03:34:03;19.48;;;8.13;;
71253;SDS011;59019;47.638;18.966;2023-02-15T03:37:09;18.03;;;8.03;;
71253;SDS011;59019;47.638;18.966;2023-02-15T03:39:33;17.15;;;7.55;;
71253;SDS011;59019;47.638;18.966;2023-02-15T03:42:19;17.35;;;7.50;;
71253;SDS011;59019;47.638;18.966;2023-02-15T03:44:57;17.30;;;6.68;;
71253;SDS011;59019;47.638;18.966;2023-02-15T03:47:25;17.13;;;7.00;;
71253;SDS011;59019;47.638;18.966;2023-02-15T03:49:57;18.97;;;7.50;;
71253;SDS011;59019;47.638;18.966;2023-02-15T03:52:27;18.45;;;6.72;;
71253;SDS011;59019;47.638;18.966;2023-02-15T03:54:54;17.50;;;6.57;;
71253;SDS011;59019;47.638;18.966;2023-02-15T03:57:22;18.45;;;7.85;;
71253;SDS011;59019;47.638;18.966;2023-02-15T04:03:39;20.05;;;7.95;;
71253;SDS011;59019;47.638;18.966;2023-02-15T04:05:56;20.02;;;8.15;;
71253;SDS011;59019;47.638;18.966;2023-02-15T04:08:21;21.80;;;8.90;;
71253;SDS011;59019;47.638;18.966;2023-02-15T04:11:07;25.23;;;10.27;;
71253;SDS011;59019;47.638;18.966;2023-02-15T04:13:34;28.15;;;11.02;;
71253;SDS011;59019;47.638;18.966;2023-02-15T04:16:00;29.52;;;12.13;;
71253;SDS011;59019;47.638;18.966;2023-02-15T04:18:49;25.37;;;11.53;;
71253;SDS011;59019;47.638;18.966;2023-02-15T04:21:33;31.42;;;12.15;;
71253;SDS011;59019;47.638;18.966;2023-02-15T04:24:17;28.50;;;12.07;;
71253;SDS011;59019;47.638;18.966;2023-02-15T04:27:01;23.77;;;11.27;;
71253;SDS011;59019;47.638;18.966;2023-02-15T04:29:28;26.83;;;11.32;;
71253;SDS011;59019;47.638;18.966;2023-02-15T04:31:56;23.87;;;11.03;;
71253;SDS011;59019;47.638;18.966;2023-02-15T04:34:22;24.55;;;9.48;;
71253;SDS011;59019;47.638;18.966;2023-02-15T04:36:48;24.30;;;9.67;;
71253;SDS011;59019;47.638;18.966;2023-02-15T04:39:15;19.92;;;8.20;;
71253;SDS011;59019;47.638;18.966;2023-02-15T04:41:42;18.80;;;8.18;;
71253;SDS011;59019;47.638;18.966;2023-02-15T04:44:08;18.17;;;8.38;;
71253;SDS011;59019;47.638;18.966;2023-02-15T04:46:34;22.17;;;8.03;;
71253;SDS011;59019;47.638;18.966;2023-02-15T04:48:59;22.60;;;8.68;;
71253;SDS011;59019;47.638;18.966;2023-02-15T04:51:25;25.30;;;9.37;;
71253;SDS011;59019;47.638;18.966;2023-02-15T04:53:51;20.07;;;8.13;;
71253;SDS011;59019;47.638;18.966;2023-02-15T04:56:20;23.63;;;9.88;;
71253;SDS011;59019;47.638;18.966;2023-02-15T04:58:46;24.10;;;9.85;;
71253;SDS011;59019;47.638;18.966;2023-02-15T05:01:11;22.75;;;10.82;;
71253;SDS011;59019;47.638;18.966;2023-02-15T05:03:37;29.27;;;13.23;;
71253;SDS011;59019;47.638;18.966;2023-02-15T05:06:03;32.72;;;16.60;;
71253;SDS011;59019;47.638;18.966;2023-02-15T05:08:30;40.08;;;20.30;;
71253;SDS011;59019;47.638;18.966;2023-02-15T05:10:56;47.85;;;24.30;;
71253;SDS011;59019;47.638;18.966;2023-02-15T05:13:22;48.35;;;25.67;;
71253;SDS011;59019;47.638;18.966;2023-02-15T05:15:48;47.93;;;23.93;;
71253;SDS011;59019;47.638;18.966;2023-02-15T05:18:18;48.28;;;20.77;;
71253;SDS011;59019;47.638;18.966;2023-02-15T05:20:45;38.50;;;17.67;;
71253;SDS011;59019;47.638;18.966;2023-02-15T05:23:11;33.23;;;17.07;;
71253;SDS011;59019;47.638;18.966;2023-02-15T05:25:37;33.83;;;17.02;;
71253;SDS011;59019;47.638;18.966;2023-02-15T05:28:21;33.03;;;15.63;;
71253;SDS011;59019;47.638;18.966;2023-02-15T05:33:29;36.03;;;17.17;;
71253;SDS011;59019;47.638;18.966;2023-02-15T05:35:55;42.20;;;19.92;;
71253;SDS011;59019;47.638;18.966;2023-02-15T05:38:20;41.67;;;19.07;;
71253;SDS011;59019;47.638;18.966;2023-02-15T05:40:46;37.50;;;16.87;;
71253;SDS011;59019;47.638;18.966;2023-02-15T05:43:12;36.22;;;14.13;;
71253;SDS011;59019;47.638;18.966;2023-02-15T05:45:37;29.63;;;13.70;;
71253;SDS011;59019;47.638;18.966;2023-02-15T05:48:03;30.55;;;13.35;;
71253;SDS011;59019;47.638;18.966;2023-02-15T05:50:29;32.03;;;13.27;;
71253;SDS011;59019;47.638;18.966;2023-02-15T05:52:54;27.93;;;13.43;;
71253;SDS011;59019;47.638;18.966;2023-02-15T05:55:20;26.38;;;12.10;;
71253;SDS011;59019;47.638;18.966;2023-02-15T05:57:45;31.93;;;13.40;;
71253;SDS011;59019;47.638;18.966;2023-02-15T06:00:11;30.73;;;14.13;;
71253;SDS011;59019;47.638;18.966;2023-02-15T06:02:38;38.10;;;16.20;;
71253;SDS011;59019;47.638;18.966;2023-02-15T06:05:05;42.63;;;17.35;;
71253;SDS011;59019;47.638;18.966;2023-02-15T06:07:31;32.50;;;14.15;;
71253;SDS011;59019;47.638;18.966;2023-02-15T06:09:57;28.27;;;12.20;;
71253;SDS011;59019;47.638;18.966;2023-02-15T06:12:24;25.63;;;11.38;;
71253;SDS011;59019;47.638;18.966;2023-02-15T06:14:49;28.67;;;11.73;;
71253;SDS011;59019;47.638;18.966;2023-02-15T06:17:15;32.30;;;13.90;;
71253;SDS011;59019;47.638;18.966;2023-02-15T06:19:41;37.08;;;15.40;;
71253;SDS011;59019;47.638;18.966;2023-02-15T06:22:07;35.83;;;13.83;;
71253;SDS011;59019;47.638;18.966;2023-02-15T06:24:33;32.10;;;15.23;;
71253;SDS011;59019;47.638;18.966;2023-02-15T06:26:58;34.33;;;13.37;;
71253;SDS011;59019;47.638;18.966;2023-02-15T06:29:24;29.37;;;13.43;;
71253;SDS011;59019;47.638;18.966;2023-02-15T06:31:49;30.20;;;13.27;;
71253;SDS011;59019;47.638;18.966;2023-02-15T06:34:17;36.60;;;14.73;;
71253;SDS011;59019;47.638;18.966;2023-02-15T06:36:43;34.87;;;14.10;;
71253;SDS011;59019;47.638;18.966;2023-02-15T06:39:09;37.70;;;14.43;;
71253;SDS011;59019;47.638;18.966;2023-02-15T06:41:34;30.43;;;12.83;;
71253;SDS011;59019;47.638;18.966;2023-02-15T06:43:59;31.13;;;12.53;;
71253;SDS011;59019;47.638;18.966;2023-02-15T06:46:25;29.07;;;11.50;;
71253;SDS011;59019;47.638;18.966;2023-02-15T06:48:50;29.27;;;11.00;;
71253;SDS011;59019;47.638;18.966;2023-02-15T06:51:16;27.42;;;10.27;;
71253;SDS011;59019;47.638;18.966;2023-02-15T06:53:41;25.37;;;10.63;;
71253;SDS011;59019;47.638;18.966;2023-02-15T06:56:08;26.50;;;10.07;;
71253;SDS011;59019;47.638;18.966;2023-02-15T06:58:35;23.43;;;9.63;;
71253;SDS011;59019;47.638;18.966;2023-02-15T07:01:02;28.30;;;9.85;;
71253;SDS011;59019;47.638;18.966;2023-02-15T07:03:29;25.92;;;10.73;;
71253;SDS011;59019;47.638;18.966;2023-02-15T07:05:55;21.55;;;9.55;;
71253;SDS011;59019;47.638;18.966;2023-02-15T07:08:23;26.23;;;10.00;;
71253;SDS011;59019;47.638;18.966;2023-02-15T07:10:50;22.27;;;9.33;;
71253;SDS011;59019;47.638;18.966;2023-02-15T07:13:16;21.17;;;9.20;;
71253;SDS011;59019;47.638;18.966;2023-02-15T07:15:43;22.52;;;8.88;;
71253;SDS011;59019;47.638;18.966;2023-02-15T07:18:09;22.70;;;8.02;;
71253;SDS011;59019;47.638;18.966;2023-02-15T07:20:35;20.50;;;7.95;;
71253;SDS011;59019;47.638;18.966;2023-02-15T07:23:02;20.70;;;7.60;;
71253;SDS011;59019;47.638;18.966;2023-02-15T07:25:28;18.88;;;7.35;;
71253;SDS011;59019;47.638;18.966;2023-02-15T07:27:57;20.63;;;8.07;;
71253;SDS011;59019;47.638;18.966;2023-02-15T07:30:27;18.48;;;7.15;;
71253;SDS011;59019;47.638;18.966;2023-02-15T07:32:56;23.58;;;9.35;;
71253;SDS011;59019;47.638;18.966;2023-02-15T07:35:48;24.92;;;9.48;;
71253;SDS011;59019;47.638;18.966;2023-02-15T07:38:15;24.73;;;9.13;;
71253;SDS011;59019;47.638;18.966;2023-02-15T07:40:41;24.97;;;9.40;;
71253;SDS011;59019;47.638;18.966;2023-02-15T07:43:07;21.48;;;8.70;;
71253;SDS011;59019;47.638;18.966;2023-02-15T07:45:32;25.07;;;9.60;;
71253;SDS011;59019;47.638;18.966;2023-02-15T07:47:59;20.95;;;8.38;;
71253;SDS011;59019;47.638;18.966;2023-02-15T07:50:25;25.58;;;9.73;;
71253;SDS011;59019;47.638;18.966;2023-02-15T07:52:51;23.45;;;9.48;;
71253;SDS011;59019;47.638;18.966;2023-02-15T07:55:16;33.47;;;13.20;;
71253;SDS011;59019;47.638;18.966;2023-02-15T07:57:44;42.25;;;14.93;;
71253;SDS011;59019;47.638;18.966;2023-02-15T08:00:10;39.47;;;14.97;;
71253;SDS011;59019;47.638;18.966;2023-02-15T08:02:38;36.25;;;14.95;;
71253;SDS011;59019;47.638;18.966;2023-02-15T08:05:04;42.88;;;20.88;;
71253;SDS011;59019;47.638;18.966;2023-02-15T08:07:32;34.92;;;15.65;;
71253;SDS011;59019;47.638;18.966;2023-02-15T08:09:57;30.70;;;13.30;;
71253;SDS011;59019;47.638;18.966;2023-02-15T08:12:25;32.88;;;13.43;;
71253;SDS011;59019;47.638;18.966;2023-02-15T08:14:51;30.15;;;12.88;;
71253;SDS011;59019;47.638;18.966;2023-02-15T08:17:17;32.07;;;13.73;;
71253;SDS011;59019;47.638;18.966;2023-02-15T08:19:43;32.28;;;12.35;;
71253;SDS011;59019;47.638;18.966;2023-02-15T08:22:10;28.60;;;12.33;;
71253;SDS011;59019;47.638;18.966;2023-02-15T08:24:38;28.60;;;11.77;;
71253;SDS011;59019;47.638;18.966;2023-02-15T08:27:04;34.45;;;12.80;;
71253;SDS011;59019;47.638;18.966;2023-02-15T08:29:35;31.93;;;13.27;;
71253;SDS011;59019;47.638;18.966;2023-02-15T08:32:04;27.52;;;11.75;;
71253;SDS011;59019;47.638;18.966;2023-02-15T08:34:35;31.65;;;13.38;;
71253;SDS011;59019;47.638;18.966;2023-02-15T08:37:03;35.72;;;15.50;;
71253;SDS011;59019;47.638;18.966;2023-02-15T08:39:28;36.60;;;15.33;;
71253;SDS011;59019;47.638;18.966;2023-02-15T08:41:54;31.40;;;13.55;;
71253;SDS011;59019;47.638;18.966;2023-02-15T08:44:20;35.43;;;15.10;;
71253;SDS011;59019;47.638;18.966;2023-02-15T08:46:46;30.83;;;14.30;;
71253;SDS011;59019;47.638;18.966;2023-02-15T08:49:15;32.63;;;14.53;;
71253;SDS011;59019;47.638;18.966;2023-02-15T08:51:45;31.02;;;14.13;;
71253;SDS011;59019;47.638;18.966;2023-02-15T08:54:15;33.15;;;13.57;;
71253;SDS011;59019;47.638;18.966;2023-02-15T08:56:43;26.65;;;12.88;;
71253;SDS011;59019;47.638;18.966;2023-02-15T08:59:20;29.25;;;12.70;;
71253;SDS011;59019;47.638;18.966;2023-02-15T09:01:47;32.00;;;14.30;;
71253;SDS011;59019;47.638;18.966;2023-02-15T09:04:13;31.38;;;13.32;;
71253;SDS011;59019;47.638;18.966;2023-02-15T09:06:41;31.33;;;13.98;;
71253;SDS011;59019;47.638;18.966;2023-02-15T09:09:08;29.77;;;12.68;;
71253;SDS011;59019;47.638;18.966;2023-02-15T09:11:36;28.50;;;12.43;;
71253;SDS011;59019;47.638;18.966;2023-02-15T09:14:05;27.40;;;12.02;;
71253;SDS011;59019;47.638;18.966;2023-02-15T09:16:34;28.45;;;12.95;;
71253;SDS011;59019;47.638;18.966;2023-02-15T09:19:01;29.70;;;14.18;;
71253;SDS011;59019;47.638;18.966;2023-02-15T09:21:30;34.45;;;14.85;;
71253;SDS011;59019;47.638;18.966;2023-02-15T09:24:00;33.47;;;14.83;;
71253;SDS011;59019;47.638;18.966;2023-02-15T09:26:29;33.13;;;15.32;;
71253;SDS011;59019;47.638;18.966;2023-02-15T09:28:57;30.77;;;14.45;;
71253;SDS011;59019;47.638;18.966;2023-02-15T09:31:25;32.05;;;14.73;;
71253;SDS011;59019;47.638;18.966;2023-02-15T09:33:53;32.53;;;14.70;;
71253;SDS011;59019;47.638;18.966;2023-02-15T09:38:52;29.98;;;14.45;;
71253;SDS011;59019;47.638;18.966;2023-02-15T09:55:42;32.38;;;15.05;;
71253;SDS011;59019;47.638;18.966;2023-02-15T09:58:21;30.83;;;14.47;;
71253;SDS011;59019;47.638;18.966;2023-02-15T10:09:48;28.23;;;13.32;;
71253;SDS011;59019;47.638;18.966;2023-02-15T10:15:53;28.73;;;13.00;;
71253;SDS011;59019;47.638;18.966;2023-02-15T10:27:15;27.27;;;12.30;;
71253;SDS011;59019;47.638;18.966;2023-02-15T10:29:57;25.27;;;12.10;;
71253;SDS011;59019;47.638;18.966;2023-02-15T10:32:37;25.90;;;12.25;;
71253;SDS011;59019;47.638;18.966;2023-02-15T10:35:20;26.80;;;13.75;;
71253;SDS011;59019;47.638;18.966;2023-02-15T10:37:55;30.80;;;13.07;;
71253;SDS011;59019;47.638;18.966;2023-02-15T10:40:34;28.20;;;13.70;;
71253;SDS011;59019;47.638;18.966;2023-02-15T10:49:19;27.55;;;13.32;;
71253;SDS011;59019;47.638;18.966;2023-02-15T10:55:07;27.67;;;13.53;;
71253;SDS011;59019;47.638;18.966;2023-02-15T11:03:53;24.75;;;11.65;;
71253;SDS011;59019;47.638;18.966;2023-02-15T11:08:42;21.17;;;12.10;;
71253;SDS011;59019;47.638;18.966;2023-02-15T11:11:21;26.73;;;13.05;;
71253;SDS011;59019;47.638;18.966;2023-02-15T11:13:51;32.25;;;18.60;;
71253;SDS011;59019;47.638;18.966;2023-02-15T11:16:27;26.90;;;12.93;;
71253;SDS011;59019;47.638;18.966;2023-02-15T11:18:56;25.27;;;12.82;;
71253;SDS011;59019;47.638;18.966;2023-02-15T11:21:44;26.37;;;13.03;;
71253;SDS011;59019;47.638;18.966;2023-02-15T11:24:16;24.23;;;11.50;;
71253;SDS011;59019;47.638;18.966;2023-02-15T11:27:46;27.08;;;12.95;;
71253;SDS011;59019;47.638;18.966;2023-02-15T11:29:58;26.52;;;12.57;;
71253;SDS011;59019;47.638;18.966;2023-02-15T11:32:33;27.92;;;15.23;;
71253;SDS011;59019;47.638;18.966;2023-02-15T11:37:44;24.85;;;12.57;;
71253;SDS011;59019;47.638;18.966;2023-02-15T11:40:21;24.40;;;13.02;;
71253;SDS011;59019;47.638;18.966;2023-02-15T11:43:02;30.27;;;14.15;;
71253;SDS011;59019;47.638;18.966;2023-02-15T11:45:35;27.40;;;12.82;;
71253;SDS011;59019;47.638;18.966;2023-02-15T11:48:04;26.80;;;13.07;;
71253;SDS011;59019;47.638;18.966;2023-02-15T11:50:35;25.58;;;13.40;;
71253;SDS011;59019;47.638;18.966;2023-02-15T11:53:02;26.05;;;12.52;;
71253;SDS011;59019;47.638;18.966;2023-02-15T11:55:32;28.33;;;13.80;;
71253;SDS011;59019;47.638;18.966;2023-02-15T12:00:39;27.38;;;13.55;;
71253;SDS011;59019;47.638;18.966;2023-02-15T12:06:00;26.60;;;13.30;;
71253;SDS011;59019;47.638;18.966;2023-02-15T12:08:38;25.43;;;12.77;;
71253;SDS011;59019;47.638;18.966;2023-02-15T12:11:08;27.58;;;13.50;;
71253;SDS011;59019;47.638;18.966;2023-02-15T12:13:48;28.20;;;13.60;;
71253;SDS011;59019;47.638;18.966;2023-02-15T12:16:23;30.60;;;13.63;;
71253;SDS011;59019;47.638;18.966;2023-02-15T12:18:49;28.60;;;14.18;;
71253;SDS011;59019;47.638;18.966;2023-02-15T12:21:24;28.23;;;13.63;;
71253;SDS011;59019;47.638;18.966;2023-02-15T12:24:03;26.00;;;13.10;;
71253;SDS011;59019;47.638;18.966;2023-02-15T12:26:42;28.55;;;14.15;;
71253;SDS011;59019;47.638;18.966;2023-02-15T12:29:25;26.88;;;13.80;;
71253;SDS011;59019;47.638;18.966;2023-02-15T12:31:54;26.52;;;12.63;;
71253;SDS011;59019;47.638;18.966;2023-02-15T12:34:54;28.23;;;14.10;;
71253;SDS011;59019;47.638;18.966;2023-02-15T12:37:23;29.77;;;13.32;;
71253;SDS011;59019;47.638;18.966;2023-02-15T12:39:55;29.05;;;14.45;;
71253;SDS011;59019;47.638;18.966;2023-02-15T12:42:23;31.13;;;16.15;;
71253;SDS011;59019;47.638;18.966;2023-02-15T12:45:19;31.30;;;14.27;;
71253;SDS011;59019;47.638;18.966;2023-02-15T12:48:34;29.17;;;14.55;;
71253;SDS011;59019;47.638;18.966;2023-02-15T12:50:46;29.35;;;14.32;;
71253;SDS011;59019;47.638;18.966;2023-02-15T12:53:21;28.52;;;13.77;;
71253;SDS011;59019;47.638;18.966;2023-02-15T12:56:00;26.00;;;13.13;;
71253;SDS011;59019;47.638;18.966;2023-02-15T12:58:38;32.27;;;15.10;;
71253;SDS011;59019;47.638;18.966;2023-02-15T13:03:33;31.63;;;15.18;;
71253;SDS011;59019;47.638;18.966;2023-02-15T13:06:02;27.90;;;13.63;;
71253;SDS011;59019;47.638;18.966;2023-02-15T13:08:54;29.20;;;14.68;;
71253;SDS011;59019;47.638;18.966;2023-02-15T13:11:24;29.70;;;14.87;;
71253;SDS011;59019;47.638;18.966;2023-02-15T13:14:01;29.63;;;14.43;;
71253;SDS011;59019;47.638;18.966;2023-02-15T13:16:32;31.95;;;14.98;;
71253;SDS011;59019;47.638;18.966;2023-02-15T13:19:06;30.23;;;13.75;;
71253;SDS011;59019;47.638;18.966;2023-02-15T13:21:38;27.25;;;13.23;;
71253;SDS011;59019;47.638;18.966;2023-02-15T13:24:10;31.37;;;15.33;;
71253;SDS011;59019;47.638;18.966;2023-02-15T13:26:45;28.27;;;13.85;;
71253;SDS011;59019;47.638;18.966;2023-02-15T13:29:17;29.55;;;14.25;;
71253;SDS011;59019;47.638;18.966;2023-02-15T13:31:54;26.13;;;13.23;;
71253;SDS011;59019;47.638;18.966;2023-02-15T13:34:23;27.92;;;13.98;;
71253;SDS011;59019;47.638;18.966;2023-02-15T13:39:27;28.60;;;13.77;;
71253;SDS011;59019;47.638;18.966;2023-02-15T13:47:18;28.67;;;13.77;;
71253;SDS011;59019;47.638;18.966;2023-02-15T13:52:49;29.42;;;13.77;;
71253;SDS011;59019;47.638;18.966;2023-02-15T13:57:57;31.80;;;13.63;;
71253;SDS011;59019;47.638;18.966;2023-02-15T14:01:10;27.50;;;13.27;;
71253;SDS011;59019;47.638;18.966;2023-02-15T14:06:36;31.02;;;13.70;;
71253;SDS011;59019;47.638;18.966;2023-02-15T14:15:06;29.05;;;12.73;;
71253;SDS011;59019;47.638;18.966;2023-02-15T14:31:46;26.37;;;12.37;;
71253;SDS011;59019;47.638;18.966;2023-02-15T14:37:01;28.15;;;12.32;;
71253;SDS011;59019;47.638;18.966;2023-02-15T14:43:11;25.80;;;11.95;;
71253;SDS011;59019;47.638;18.966;2023-02-15T14:48:45;26.58;;;11.02;;
71253;SDS011;59019;47.638;18.966;2023-02-15T14:51:59;24.35;;;11.27;;
71253;SDS011;59019;47.638;18.966;2023-02-15T14:54:52;26.08;;;11.68;;
71253;SDS011;59019;47.638;18.966;2023-02-15T14:59:25;27.93;;;11.97;;
71253;SDS011;59019;47.638;18.966;2023-02-15T15:02:13;32.35;;;13.88;;
71253;SDS011;59019;47.638;18.966;2023-02-15T15:10:03;30.10;;;12.20;;
71253;SDS011;59019;47.638;18.966;2023-02-15T15:12:57;26.83;;;10.73;;
71253;SDS011;59019;47.638;18.966;2023-02-15T15:15:32;25.35;;;11.13;;
71253;SDS011;59019;47.638;18.966;2023-02-15T15:18:09;30.77;;;12.82;;
71253;SDS011;59019;47.638;18.966;2023-02-15T15:20:55;25.42;;;11.32;;
71253;SDS011;59019;47.638;18.966;2023-02-15T15:28:53;31.90;;;13.90;;
71253;SDS011;59019;47.638;18.966;2023-02-15T15:31:20;31.45;;;14.18;;
71253;SDS011;59019;47.638;18.966;2023-02-15T15:39:27;25.98;;;10.82;;
71253;SDS011;59019;47.638;18.966;2023-02-15T15:42:32;26.37;;;11.73;;
71253;SDS011;59019;47.638;18.966;2023-02-15T15:50:29;25.27;;;10.63;;
71253;SDS011;59019;47.638;18.966;2023-02-15T15:52:57;26.27;;;11.00;;
71253;SDS011;59019;47.638;18.966;2023-02-15T15:55:26;31.13;;;11.43;;
71253;SDS011;59019;47.638;18.966;2023-02-15T15:57:57;26.48;;;11.70;;
71253;SDS011;59019;47.638;18.966;2023-02-15T16:00:40;32.03;;;12.05;;
71253;SDS011;59019;47.638;18.966;2023-02-15T16:03:14;32.33;;;12.90;;
71253;SDS011;59019;47.638;18.966;2023-02-15T16:05:50;28.42;;;11.65;;
71253;SDS011;59019;47.638;18.966;2023-02-15T16:08:36;28.23;;;12.37;;
71253;SDS011;59019;47.638;18.966;2023-02-15T16:11:11;30.17;;;13.88;;
71253;SDS011;59019;47.638;18.966;2023-02-15T16:13:41;27.92;;;11.02;;
71253;SDS011;59019;47.638;18.966;2023-02-15T16:16:08;28.50;;;11.45;;
71253;SDS011;59019;47.638;18.966;2023-02-15T16:18:36;27.40;;;10.05;;
71253;SDS011;59019;47.638;18.966;2023-02-15T16:21:14;28.93;;;11.80;;
71253;SDS011;59019;47.638;18.966;2023-02-15T16:28:53;57.85;;;20.85;;
71253;SDS011;59019;47.638;18.966;2023-02-15T16:31:19;139.32;;;38.80;;
71253;SDS011;59019;47.638;18.966;2023-02-15T16:33:52;89.27;;;29.43;;
71253;SDS011;59019;47.638;18.966;2023-02-15T16:36:22;47.05;;;17.50;;
71253;SDS011;59019;47.638;18.966;2023-02-15T16:43:50;78.97;;;30.55;;
71253;SDS011;59019;47.638;18.966;2023-02-15T16:46:31;70.30;;;29.17;;
71253;SDS011;59019;47.638;18.966;2023-02-15T16:49:01;94.15;;;36.90;;
71253;SDS011;59019;47.638;18.966;2023-02-15T16:51:31;127.13;;;48.90;;
71253;SDS011;59019;47.638;18.966;2023-02-15T16:54:02;92.50;;;37.75;;
71253;SDS011;59019;47.638;18.966;2023-02-15T16:56:33;85.78;;;33.38;;
71253;SDS011;59019;47.638;18.966;2023-02-15T16:59:01;93.38;;;37.70;;
71253;SDS011;59019;47.638;18.966;2023-02-15T17:01:30;78.50;;;33.42;;
71253;SDS011;59019;47.638;18.966;2023-02-15T17:04:12;63.07;;;25.83;;
71253;SDS011;59019;47.638;18.966;2023-02-15T17:06:38;55.13;;;23.05;;
71253;SDS011;59019;47.638;18.966;2023-02-15T17:09:05;46.75;;;20.67;;
71253;SDS011;59019;47.638;18.966;2023-02-15T17:11:40;45.13;;;18.27;;
71253;SDS011;59019;47.638;18.966;2023-02-15T17:16:36;52.40;;;18.85;;
71253;SDS011;59019;47.638;18.966;2023-02-15T17:19:15;39.97;;;15.25;;
71253;SDS011;59019;47.638;18.966;2023-02-15T17:21:49;45.13;;;17.33;;
71253;SDS011;59019;47.638;18.966;2023-02-15T17:24:19;51.78;;;20.10;;
71253;SDS011;59019;47.638;18.966;2023-02-15T17:26:54;48.33;;;18.30;;
71253;SDS011;59019;47.638;18.966;2023-02-15T17:29:31;47.45;;;17.08;;
71253;SDS011;59019;47.638;18.966;2023-02-15T17:32:05;35.22;;;14.07;;
71253;SDS011;59019;47.638;18.966;2023-02-15T17:34:41;37.90;;;13.88;;
71253;SDS011;59019;47.638;18.966;2023-02-15T17:39:57;33.30;;;12.47;;
71253;SDS011;59019;47.638;18.966;2023-02-15T17:42:24;42.17;;;17.25;;
71253;SDS011;59019;47.638;18.966;2023-02-15T17:44:50;51.05;;;20.25;;